createdAt,value
2022-12-17T00:01:29.139Z,96449.22
2022-12-17T00:04:14.191Z,96454.56
2022-12-17T00:06:59.393Z,96451.13
2022-12-17T00:09:50.017Z,96459.84
2022-12-17T00:12:35.399Z,96476.75
2022-12-17T00:15:20.160Z,96473.13
2022-12-17T00:18:05.143Z,96474.66
2022-12-17T00:20:49.908Z,96482.19
2022-12-17T00:23:35.211Z,96484.56
2022-12-17T00:26:20.201Z,96487.53
2022-12-17T00:29:05.021Z,96486.31
2022-12-17T00:31:50.008Z,96488.38
2022-12-17T00:34:34.748Z,96490.16
2022-12-17T00:37:19.725Z,96485.31
2022-12-17T00:40:04.540Z,96506.97
2022-12-17T00:42:49.568Z,96502.81
2022-12-17T00:45:34.381Z,96503.72
2022-12-17T00:48:19.351Z,96505.00
2022-12-17T00:51:04.154Z,96502.56
2022-12-17T00:53:49.107Z,96508.78
2022-12-17T00:56:34.041Z,96501.91
2022-12-17T00:59:18.845Z,96510.78
2022-12-17T01:02:03.822Z,96511.69
2022-12-17T01:04:49.142Z,96517.06
2022-12-17T01:07:34.237Z,96513.53
2022-12-17T01:10:19.042Z,96514.72
2022-12-17T01:13:04.032Z,96513.09
2022-12-17T01:15:48.956Z,96519.53
2022-12-17T01:18:33.842Z,96526.22
2022-12-17T01:21:18.733Z,96521.78
2022-12-17T01:24:03.599Z,96526.66
2022-12-17T01:26:48.591Z,96528.47
2022-12-17T01:29:33.499Z,96531.19
2022-12-17T01:32:18.493Z,96540.22
2022-12-17T01:35:03.318Z,96544.88
2022-12-17T01:37:48.122Z,96539.19
2022-12-17T01:40:33.040Z,96538.06
2022-12-17T01:43:18.141Z,96546.03
2022-12-17T01:46:03.183Z,96547.22
2022-12-17T01:48:47.970Z,96542.53
2022-12-17T01:51:32.899Z,96547.56
2022-12-17T01:54:17.829Z,96558.50
2022-12-17T01:57:02.838Z,96555.31
2022-12-17T01:59:47.604Z,96569.97
2022-12-17T02:02:32.698Z,96567.81
2022-12-17T02:05:18.001Z,96564.41
2022-12-17T02:08:02.929Z,96571.59
2022-12-17T02:10:47.855Z,96566.78
2022-12-17T02:13:32.971Z,96570.25
2022-12-17T02:16:18.312Z,96577.66
2022-12-17T02:19:03.142Z,96575.22
2022-12-17T02:21:48.169Z,96582.22
2022-12-17T02:24:33.021Z,96579.41
2022-12-17T02:27:17.976Z,96587.66
2022-12-17T02:30:02.948Z,96579.84
2022-12-17T02:32:47.901Z,96582.69
2022-12-17T02:35:32.854Z,96584.31
2022-12-17T02:38:17.731Z,96590.88
2022-12-17T02:41:04.001Z,96594.31
2022-12-17T02:43:49.272Z,96598.81
2022-12-17T02:46:34.181Z,96597.31
2022-12-17T02:49:19.097Z,96593.63
2022-12-17T02:52:03.885Z,96598.84
2022-12-17T02:54:49.001Z,96604.50
2022-12-17T02:57:33.881Z,96602.19
2022-12-17T03:00:18.857Z,96600.81
2022-12-17T03:03:03.886Z,96599.09
2022-12-17T03:05:49.240Z,96596.91
2022-12-17T03:08:34.060Z,96595.09
2022-12-17T03:11:19.046Z,96599.97
2022-12-17T03:14:03.998Z,96597.66
2022-12-17T03:16:48.934Z,96606.53
2022-12-17T03:19:34.391Z,96608.66
2022-12-17T03:22:19.191Z,96622.97
2022-12-17T03:25:04.113Z,96620.44
2022-12-17T03:27:48.949Z,96624.25
2022-12-17T03:30:36.420Z,96623.34
2022-12-17T03:33:22.289Z,96625.81
2022-12-17T03:36:07.101Z,96617.56
2022-12-17T03:38:51.945Z,96625.69
2022-12-17T03:41:36.666Z,96628.84
2022-12-17T03:44:21.571Z,96623.78
2022-12-17T03:47:06.956Z,96618.44
2022-12-17T03:49:51.837Z,96630.47
2022-12-17T03:52:36.827Z,96635.69
2022-12-17T03:55:21.726Z,96625.38
2022-12-17T03:58:06.801Z,96634.63
2022-12-17T04:00:51.699Z,96633.41
2022-12-17T04:03:36.985Z,96628.22
2022-12-17T04:06:21.904Z,96628.53
2022-12-17T04:09:06.746Z,96631.91
2022-12-17T04:11:51.693Z,96632.88
2022-12-17T04:14:36.661Z,96632.91
2022-12-17T04:17:21.557Z,96629.34
2022-12-17T04:20:06.293Z,96630.03
2022-12-17T04:22:51.159Z,96630.06
2022-12-17T04:25:35.976Z,96629.59
2022-12-17T04:28:20.851Z,96630.47
2022-12-17T04:31:05.841Z,96647.75
2022-12-17T04:33:50.774Z,96646.75
2022-12-17T04:36:35.641Z,96655.03
2022-12-17T04:39:20.537Z,96657.44
2022-12-17T04:42:05.470Z,96656.72
2022-12-17T04:44:50.254Z,96660.19
2022-12-17T04:47:35.183Z,96668.31
2022-12-17T04:50:19.994Z,96658.72
2022-12-17T04:53:05.195Z,96655.00
2022-12-17T04:55:49.987Z,96647.81
2022-12-17T04:58:34.917Z,96651.00
2022-12-17T05:01:19.756Z,96663.00
2022-12-17T05:04:05.233Z,96670.09
2022-12-17T05:06:50.064Z,96662.13
2022-12-17T05:09:35.042Z,96664.19
2022-12-17T05:12:19.897Z,96676.28
2022-12-17T05:15:04.901Z,96679.38
2022-12-17T05:17:49.758Z,96683.50
2022-12-17T05:20:34.543Z,96683.28
2022-12-17T05:23:19.446Z,96687.41
2022-12-17T05:26:04.254Z,96685.31
2022-12-17T05:28:49.184Z,96689.78
2022-12-17T05:31:34.125Z,96689.13
2022-12-17T05:34:18.909Z,96687.63
2022-12-17T05:37:03.938Z,96688.25
2022-12-17T05:39:48.735Z,96689.56
2022-12-17T05:42:33.702Z,96695.25
2022-12-17T05:45:18.580Z,96695.91
2022-12-17T05:48:03.499Z,96699.53
2022-12-17T05:50:48.355Z,96708.28
2022-12-17T05:53:33.628Z,96708.28
2022-12-17T05:56:18.737Z,96707.59
2022-12-17T05:59:03.674Z,96695.22
2022-12-17T06:01:48.620Z,96697.78
2022-12-17T06:04:33.508Z,96707.06
2022-12-17T06:07:19.654Z,96707.84
2022-12-17T06:10:04.541Z,96707.50
2022-12-17T06:12:49.374Z,96709.41
2022-12-17T06:15:34.357Z,96708.56
2022-12-17T06:18:19.095Z,96720.53
2022-12-17T06:21:04.099Z,96716.50
2022-12-17T06:23:49.044Z,96713.13
2022-12-17T06:26:34.085Z,96718.94
2022-12-17T06:29:18.868Z,96721.34
2022-12-17T06:32:03.802Z,96731.47
2022-12-17T06:34:48.670Z,96731.25
2022-12-17T06:37:33.561Z,96737.72
2022-12-17T06:40:18.451Z,96737.44
2022-12-17T06:43:03.340Z,96739.72
2022-12-17T06:45:48.357Z,96751.97
2022-12-17T06:48:33.187Z,96760.50
2022-12-17T06:51:18.093Z,96753.19
2022-12-17T06:54:02.905Z,96749.63
2022-12-17T06:56:47.739Z,96756.81
2022-12-17T06:59:32.675Z,96763.19
2022-12-17T07:02:17.756Z,96772.75
2022-12-17T07:05:02.710Z,96783.25
2022-12-17T07:07:47.341Z,96781.75
2022-12-17T07:10:32.282Z,96789.50
2022-12-17T07:13:17.055Z,96793.25
2022-12-17T07:16:02.005Z,96789.44
2022-12-17T07:18:46.879Z,96801.44
2022-12-17T07:21:31.885Z,96817.06
2022-12-17T07:24:16.658Z,96826.47
2022-12-17T07:27:01.619Z,96826.84
2022-12-17T07:29:46.491Z,96827.00
2022-12-17T07:32:31.309Z,96825.97
2022-12-17T07:35:16.276Z,96831.09
2022-12-17T07:38:01.088Z,96836.19
2022-12-17T07:40:46.013Z,96848.44
2022-12-17T07:43:30.957Z,96858.84
2022-12-17T07:46:15.871Z,96850.56
2022-12-17T07:49:00.683Z,96841.47
2022-12-17T07:51:45.509Z,96859.97
2022-12-17T07:54:30.532Z,96871.41
2022-12-17T07:57:15.292Z,96871.78
2022-12-17T08:00:00.176Z,96875.75
2022-12-17T08:02:45.149Z,96878.63
2022-12-17T08:05:31.028Z,96892.66
2022-12-17T08:08:15.716Z,96888.13
2022-12-17T08:11:00.540Z,96890.81
2022-12-17T08:13:45.427Z,96897.78
2022-12-17T08:16:30.269Z,96902.38
2022-12-17T08:19:15.196Z,96903.94
2022-12-17T08:21:59.957Z,96910.16
2022-12-17T08:24:44.784Z,96917.69
2022-12-17T08:27:29.572Z,96930.38
2022-12-17T08:30:14.478Z,96927.69
2022-12-17T08:32:59.386Z,96932.56
2022-12-17T08:35:44.268Z,96931.09
2022-12-17T08:38:29.154Z,96930.28
2022-12-17T08:41:13.953Z,96916.56
2022-12-17T08:43:58.926Z,96920.56
2022-12-17T08:46:43.777Z,96923.81
2022-12-17T08:49:28.642Z,96926.81
2022-12-17T08:52:13.422Z,96935.00
2022-12-17T08:54:58.597Z,96938.38
2022-12-17T08:57:43.385Z,96935.09
2022-12-17T09:00:28.370Z,96932.59
2022-12-17T09:03:13.270Z,96938.22
2022-12-17T09:05:58.066Z,96937.97
2022-12-17T09:08:42.966Z,96932.22
2022-12-17T09:11:27.921Z,96934.38
2022-12-17T09:14:12.877Z,96932.41
2022-12-17T09:16:57.768Z,96932.28
2022-12-17T09:19:42.702Z,96943.78
2022-12-17T09:22:27.510Z,96951.72
2022-12-17T09:25:12.417Z,96953.84
2022-12-17T09:27:57.259Z,96950.78
2022-12-17T09:30:42.244Z,96950.78
2022-12-17T09:33:27.093Z,96949.00
2022-12-17T09:36:11.935Z,96947.75
2022-12-17T09:38:56.784Z,96962.69
2022-12-17T09:41:41.655Z,96961.28
2022-12-17T09:44:26.598Z,96954.66
2022-12-17T09:47:11.424Z,96956.66
2022-12-17T09:49:56.393Z,96960.00
2022-12-17T09:52:41.458Z,96961.34
2022-12-17T09:55:26.426Z,96961.03
2022-12-17T09:58:11.350Z,96962.03
2022-12-17T10:01:00.751Z,96947.41
2022-12-17T10:03:46.451Z,96956.31
2022-12-17T10:06:31.249Z,96959.91
2022-12-17T10:09:16.116Z,96965.91
2022-12-17T10:12:01.152Z,96962.38
2022-12-17T10:14:46.071Z,96961.50
2022-12-17T10:17:31.008Z,96951.66
2022-12-17T10:20:15.691Z,96958.16
2022-12-17T10:23:00.541Z,96956.59
2022-12-17T10:25:45.260Z,96959.53
2022-12-17T10:28:30.233Z,96958.41
2022-12-17T10:31:15.059Z,96968.78
2022-12-17T10:33:59.953Z,96963.66
2022-12-17T10:36:44.903Z,96961.03
2022-12-17T10:39:29.673Z,96961.94
2022-12-17T10:42:14.531Z,96967.56
2022-12-17T10:44:59.369Z,96959.22
2022-12-17T10:47:44.241Z,96956.19
2022-12-17T10:50:29.053Z,96955.16
2022-12-17T10:53:14.066Z,96959.31
2022-12-17T10:55:58.813Z,96956.03
2022-12-17T10:58:43.617Z,96954.31
2022-12-17T11:01:28.584Z,96957.16
2022-12-17T11:04:13.425Z,96961.56
2022-12-17T11:06:58.366Z,96964.00
2022-12-17T11:09:43.164Z,96951.91
2022-12-17T11:12:30.875Z,96958.94
2022-12-17T11:15:16.528Z,96966.00
2022-12-17T11:18:02.886Z,96960.03
2022-12-17T11:20:49.417Z,96952.78
2022-12-17T11:23:34.636Z,96950.50
2022-12-17T11:26:19.702Z,96955.47
2022-12-17T11:29:04.592Z,96957.03
2022-12-17T11:31:49.442Z,96952.56
2022-12-17T11:34:34.332Z,96953.81
2022-12-17T11:37:19.180Z,96953.91
2022-12-17T11:40:04.073Z,96954.94
2022-12-17T11:42:48.898Z,96960.03
2022-12-17T11:45:33.874Z,96956.13
2022-12-17T11:48:18.684Z,96957.75
2022-12-17T11:51:03.700Z,96948.16
2022-12-17T11:53:48.592Z,96942.41
2022-12-17T11:56:33.598Z,96947.66
2022-12-17T11:59:18.396Z,96944.44
2022-12-17T12:02:03.482Z,96948.66
2022-12-17T12:04:48.396Z,96946.06
2022-12-17T12:07:33.162Z,96947.97
2022-12-17T12:10:18.098Z,96949.31
2022-12-17T12:13:03.001Z,96955.16
2022-12-17T12:15:48.223Z,96951.22
2022-12-17T12:18:33.677Z,96948.69
2022-12-17T12:21:18.906Z,96946.31
2022-12-17T12:24:03.763Z,96939.47
2022-12-17T12:26:48.698Z,96947.31
2022-12-17T12:29:33.574Z,96943.94
2022-12-17T12:32:18.481Z,96948.94
2022-12-17T12:35:03.232Z,96954.47
2022-12-17T12:37:48.158Z,96955.72
2022-12-17T12:40:33.161Z,96953.88
2022-12-17T12:43:18.211Z,96955.88
2022-12-17T12:46:03.192Z,96956.09
2022-12-17T12:48:47.999Z,96958.75
2022-12-17T12:51:34.356Z,96964.97
2022-12-17T12:54:19.761Z,96962.34
2022-12-17T12:57:04.685Z,96962.09
2022-12-17T12:59:49.566Z,96954.06
2022-12-17T13:02:34.680Z,96955.00
2022-12-17T13:05:19.961Z,96956.47
2022-12-17T13:08:04.855Z,96957.19
2022-12-17T13:10:49.672Z,96955.41
2022-12-17T13:13:34.553Z,96953.59
2022-12-17T13:16:19.433Z,96954.31
2022-12-17T13:19:04.401Z,96946.91
2022-12-17T13:21:49.387Z,96942.28
2022-12-17T13:24:34.204Z,96944.59
2022-12-17T13:27:19.167Z,96952.94
2022-12-17T13:30:04.100Z,96953.19
2022-12-17T13:32:49.097Z,96949.13
2022-12-17T13:35:34.002Z,96954.59
2022-12-17T13:38:18.857Z,96956.00
2022-12-17T13:41:09.356Z,96954.94
2022-12-17T13:43:55.024Z,96958.22
2022-12-17T13:46:45.041Z,96963.16
2022-12-17T13:49:32.108Z,96967.59
2022-12-17T13:52:16.990Z,96974.28
2022-12-17T13:55:01.853Z,96971.06
2022-12-17T13:57:46.893Z,96963.16
2022-12-17T14:00:31.713Z,96974.34
2022-12-17T14:03:16.573Z,96974.00
2022-12-17T14:06:01.365Z,96973.09
2022-12-17T14:08:46.253Z,96978.75
2022-12-17T14:11:31.175Z,96975.91
2022-12-17T14:14:16.144Z,96985.38
2022-12-17T14:17:01.188Z,96977.28
2022-12-17T14:19:46.022Z,96980.09
2022-12-17T14:22:31.154Z,96984.44
2022-12-17T14:25:16.046Z,96994.63
2022-12-17T14:28:01.052Z,97000.09
2022-12-17T14:31:24.262Z,97004.00
2022-12-17T14:33:50.865Z,97007.53
2022-12-17T14:36:35.808Z,97006.22
2022-12-17T14:39:20.811Z,97011.78
2022-12-17T14:42:05.647Z,97008.28
2022-12-17T14:44:50.380Z,97006.91
2022-12-17T14:47:35.398Z,97011.28
2022-12-17T14:50:20.247Z,97019.00
2022-12-17T14:53:05.239Z,97020.06
2022-12-17T14:55:55.056Z,97015.09
2022-12-17T14:58:40.665Z,97013.22
2022-12-17T15:01:25.790Z,97017.72
2022-12-17T15:04:11.232Z,97021.25
2022-12-17T15:06:56.120Z,97027.25
2022-12-17T15:09:41.182Z,97032.63
2022-12-17T15:12:26.113Z,97029.53
2022-12-17T15:15:11.182Z,97028.09
2022-12-17T15:17:55.997Z,97030.94
2022-12-17T15:20:41.066Z,97024.41
2022-12-17T15:23:26.112Z,97029.09
2022-12-17T15:26:10.975Z,97029.97
2022-12-17T15:28:55.918Z,97033.41
2022-12-17T15:31:40.968Z,97033.75
2022-12-17T15:34:25.909Z,97030.03
2022-12-17T15:37:10.677Z,97035.69
2022-12-17T15:39:56.005Z,97042.09
2022-12-17T15:42:40.824Z,97036.22
2022-12-17T15:45:25.830Z,97044.19
2022-12-17T15:48:10.801Z,97036.69
2022-12-17T15:50:55.693Z,97041.75
2022-12-17T15:53:40.652Z,97037.03
2022-12-17T15:56:25.535Z,97043.41
2022-12-17T15:59:10.428Z,97048.16
2022-12-17T16:01:55.392Z,97049.47
2022-12-17T16:04:40.396Z,97039.53
2022-12-17T16:07:25.249Z,97039.78
2022-12-17T16:10:10.242Z,97034.63
2022-12-17T16:12:55.200Z,97045.97
2022-12-17T16:15:40.239Z,97033.28
2022-12-17T16:18:25.184Z,97048.03
2022-12-17T16:21:10.052Z,97039.84
2022-12-17T16:23:54.985Z,97039.22
2022-12-17T16:26:39.915Z,97037.47
2022-12-17T16:29:24.827Z,97039.06
2022-12-17T16:32:09.668Z,97041.41
2022-12-17T16:34:54.540Z,97042.47
2022-12-17T16:37:39.563Z,97047.66
2022-12-17T16:40:24.355Z,97050.22
2022-12-17T16:43:09.235Z,97053.53
2022-12-17T16:45:54.175Z,97052.81
2022-12-17T16:48:39.594Z,97047.41
2022-12-17T16:51:28.888Z,97049.84
2022-12-17T16:54:14.504Z,97057.25
2022-12-17T16:56:59.515Z,97048.84
2022-12-17T16:59:44.365Z,97050.13
2022-12-17T17:02:29.532Z,97053.59
2022-12-17T17:05:14.976Z,97065.72
2022-12-17T17:07:59.811Z,97066.03
2022-12-17T17:10:44.753Z,97074.88
2022-12-17T17:13:29.544Z,97079.88
2022-12-17T17:16:14.583Z,97084.31
2022-12-17T17:18:59.841Z,97082.75
2022-12-17T17:21:44.719Z,97076.16
2022-12-17T17:24:29.577Z,97084.66
2022-12-17T17:27:14.718Z,97076.28
2022-12-17T17:30:03.275Z,97080.31
2022-12-17T17:32:48.849Z,97088.72
2022-12-17T17:35:33.923Z,97080.78
2022-12-17T17:38:18.877Z,97091.19
2022-12-17T17:41:03.702Z,97095.47
2022-12-17T17:43:48.705Z,97085.72
2022-12-17T17:46:33.428Z,97080.16
2022-12-17T17:49:18.472Z,97090.94
2022-12-17T17:52:11.431Z,97089.59
2022-12-17T17:54:56.700Z,97090.53
2022-12-17T17:57:41.612Z,97097.50
2022-12-17T18:00:26.540Z,97104.56
2022-12-17T18:03:11.532Z,97091.94
2022-12-17T18:05:56.968Z,97101.22
2022-12-17T18:08:41.850Z,97101.94
2022-12-17T18:11:26.752Z,97107.13
2022-12-17T18:14:11.673Z,97107.25
2022-12-17T18:16:56.551Z,97110.88
2022-12-17T18:19:41.424Z,97109.16
2022-12-17T18:22:26.326Z,97108.97
2022-12-17T18:25:11.380Z,97111.47
2022-12-17T18:27:56.334Z,97112.56
2022-12-17T18:30:41.276Z,97116.03
2022-12-17T18:33:26.247Z,97118.53
2022-12-17T18:36:11.336Z,97115.59
2022-12-17T18:38:56.147Z,97124.59
2022-12-17T18:41:41.084Z,97124.81
2022-12-17T18:44:25.830Z,97124.50
2022-12-17T18:47:10.920Z,97126.06
2022-12-17T18:49:56.296Z,97128.34
2022-12-17T18:52:42.723Z,97134.75
2022-12-17T18:55:27.710Z,97135.00
2022-12-17T18:58:12.500Z,97140.13
2022-12-17T19:00:57.467Z,97147.72
2022-12-17T19:03:42.276Z,97153.69
2022-12-17T19:06:27.317Z,97150.06
2022-12-17T19:09:12.211Z,97157.63
2022-12-17T19:11:57.099Z,97158.59
2022-12-17T19:14:42.080Z,97163.53
2022-12-17T19:17:27.030Z,97162.25
2022-12-17T19:20:11.899Z,97163.72
2022-12-17T19:22:56.636Z,97168.88
2022-12-17T19:25:41.547Z,97173.50
2022-12-17T19:28:26.399Z,97178.06
2022-12-17T19:31:11.330Z,97175.31
2022-12-17T19:33:56.867Z,97170.53
2022-12-17T19:36:41.660Z,97182.34
2022-12-17T19:39:26.664Z,97187.88
2022-12-17T19:42:11.431Z,97184.88
2022-12-17T19:44:56.469Z,97179.91
2022-12-17T19:47:41.549Z,97189.66
2022-12-17T19:50:26.371Z,97200.16
2022-12-17T19:53:11.461Z,97209.13
2022-12-17T19:55:56.709Z,97199.00
2022-12-17T19:58:41.898Z,97205.28
2022-12-17T20:01:27.315Z,97199.13
2022-12-17T20:04:12.541Z,97201.41
2022-12-17T20:06:57.407Z,97217.03
2022-12-17T20:09:42.260Z,97220.25
2022-12-17T20:12:27.183Z,97226.34
2022-12-17T20:15:11.991Z,97236.34
2022-12-17T20:17:56.892Z,97233.75
2022-12-17T20:20:41.653Z,97229.13
2022-12-17T20:23:26.672Z,97233.53
2022-12-17T20:26:11.611Z,97227.88
2022-12-17T20:28:56.564Z,97223.38
2022-12-17T20:31:45.428Z,97224.47
2022-12-17T20:34:33.192Z,97227.22
2022-12-17T20:37:18.135Z,97223.16
2022-12-17T20:40:03.070Z,97239.66
2022-12-17T20:42:48.092Z,97239.25
2022-12-17T20:45:33.147Z,97238.44
2022-12-17T20:48:17.992Z,97235.66
2022-12-17T20:51:03.036Z,97226.13
2022-12-17T20:53:47.864Z,97228.50
2022-12-17T20:56:32.850Z,97237.28
2022-12-17T20:59:17.654Z,97241.31
2022-12-17T21:02:02.717Z,97248.59
2022-12-17T21:04:47.846Z,97256.50
2022-12-17T21:07:32.775Z,97261.13
2022-12-17T21:10:17.681Z,97260.44
2022-12-17T21:13:02.537Z,97266.38
2022-12-17T21:15:47.417Z,97270.19
2022-12-17T21:18:32.983Z,97267.13
2022-12-17T21:21:17.811Z,97258.78
2022-12-17T21:24:02.599Z,97258.47
2022-12-17T21:26:47.676Z,97254.66
2022-12-17T21:29:32.568Z,97264.75
2022-12-17T21:32:17.511Z,97269.44
2022-12-17T21:35:02.405Z,97270.31
2022-12-17T21:37:47.162Z,97279.44
2022-12-17T21:40:32.758Z,97288.06
2022-12-17T21:43:17.682Z,97286.97
2022-12-17T21:46:02.746Z,97276.28
2022-12-17T21:48:47.785Z,97278.72
2022-12-17T21:51:32.955Z,97280.75
2022-12-17T21:54:19.959Z,97276.88
2022-12-17T21:57:05.229Z,97264.66
2022-12-17T21:59:50.213Z,97261.09
2022-12-17T22:02:36.688Z,97259.69
2022-12-17T22:05:22.020Z,97265.06
2022-12-17T22:08:06.852Z,97261.94
2022-12-17T22:10:52.235Z,97247.47
2022-12-17T22:13:37.810Z,97251.34
2022-12-17T22:16:22.863Z,97257.38
2022-12-17T22:19:07.769Z,97260.41
2022-12-17T22:21:54.990Z,97275.13
2022-12-17T22:24:43.125Z,97277.81
2022-12-17T22:27:28.532Z,97263.47
2022-12-17T22:30:13.482Z,97265.84
2022-12-17T22:32:58.413Z,97275.72
2022-12-17T22:36:13.603Z,97269.81
2022-12-17T22:43:43.659Z,97272.09
2022-12-17T22:44:34.437Z,97270.38
2022-12-17T22:45:06.143Z,97282.53
2022-12-17T22:47:53.677Z,97277.91
2022-12-17T22:50:41.725Z,97290.41
2022-12-17T22:53:43.645Z,97289.66
2022-12-17T22:56:50.630Z,97299.28
2022-12-17T22:59:33.787Z,97306.28
2022-12-17T23:02:18.943Z,97299.69
2022-12-17T23:05:04.753Z,97294.97
2022-12-17T23:07:49.765Z,97293.13
2022-12-17T23:10:34.633Z,97299.28
2022-12-17T23:13:19.605Z,97295.22
2022-12-17T23:16:04.676Z,97291.81
2022-12-17T23:18:49.532Z,97286.97
2022-12-17T23:21:34.451Z,97287.94
2022-12-17T23:24:19.295Z,97294.56
2022-12-17T23:27:04.184Z,97305.06
2022-12-17T23:29:49.097Z,97309.66
2022-12-17T23:32:33.974Z,97298.00
2022-12-17T23:35:18.874Z,97301.03
2022-12-17T23:38:03.661Z,97291.78
2022-12-17T23:40:48.742Z,97291.25
2022-12-17T23:43:33.606Z,97308.19
2022-12-17T23:46:18.702Z,97311.56
2022-12-17T23:49:03.281Z,97315.88
2022-12-17T23:51:48.115Z,97308.53
2022-12-17T23:54:32.967Z,97314.28
2022-12-17T23:57:18.020Z,97319.56
